sensor_id;sensor_type;location;lat;lon;timestamp;pressure;altitude;pressure_sealevel;temperature;humidity
35419;BME280;21525;41.240;16.500;2022-12-29T00:01:33;102361.69;;;17.36;100.00
35419;BME280;21525;41.240;16.500;2022-12-29T00:03:59;102373.13;;;16.69;100.00
35419;BME280;21525;41.240;16.500;2022-12-29T00:06:25;102367.41;;;17.06;100.00
35419;BME280;21525;41.240;16.500;2022-12-29T00:08:51;102372.69;;;17.03;100.00
35419;BME280;21525;41.240;16.500;2022-12-29T00:11:22;102372.19;;;16.73;100.00
35419;BME280;21525;41.240;16.500;2022-12-29T00:13:49;102363.59;;;16.58;100.00
35419;BME280;21525;41.240;16.500;2022-12-29T00:16:34;102361.75;;;16.69;100.00
35419;BME280;21525;41.240;16.500;2022-12-29T00:19:01;102368.13;;;16.45;100.00
35419;BME280;21525;41.240;16.500;2022-12-29T00:21:28;102365.53;;;16.42;100.00
35419;BME280;21525;41.240;16.500;2022-12-29T00:24:17;102371.72;;;16.38;100.00
35419;BME280;21525;41.240;16.500;2022-12-29T00:29:46;102375.31;;;16.28;100.00
35419;BME280;21525;41.240;16.500;2022-12-29T00:32:30;102379.16;;;15.93;100.00
35419;BME280;21525;41.240;16.500;2022-12-29T00:37:49;102380.75;;;16.09;100.00
35419;BME280;21525;41.240;16.500;2022-12-29T00:40:34;102379.22;;;15.87;100.00
35419;BME280;21525;41.240;16.500;2022-12-29T00:43:20;102377.56;;;15.77;100.00
35419;BME280;21525;41.240;16.500;2022-12-29T00:46:05;102379.28;;;15.78;100.00
35419;BME280;21525;41.240;16.500;2022-12-29T00:48:30;102378.19;;;16.02;100.00
35419;BME280;21525;41.240;16.500;2022-12-29T00:51:15;102384.28;;;16.05;100.00
35419;BME280;21525;41.240;16.500;2022-12-29T00:53:41;102382.50;;;16.12;100.00
35419;BME280;21525;41.240;16.500;2022-12-29T00:56:07;102381.56;;;16.19;100.00
35419;BME280;21525;41.240;16.500;2022-12-29T00:58:33;102380.88;;;15.97;100.00
35419;BME280;21525;41.240;16.500;2022-12-29T01:01:04;102382.47;;;16.13;100.00
35419;BME280;21525;41.240;16.500;2022-12-29T01:03:30;102374.50;;;16.24;100.00
35419;BME280;21525;41.240;16.500;2022-12-29T01:05:56;102379.78;;;16.20;100.00
35419;BME280;21525;41.240;16.500;2022-12-29T01:08:26;102383.34;;;16.14;100.00
35419;BME280;21525;41.240;16.500;2022-12-29T01:11:04;102377.38;;;15.95;100.00
35419;BME280;21525;41.240;16.500;2022-12-29T01:13:31;102386.88;;;16.11;100.00
35419;BME280;21525;41.240;16.500;2022-12-29T01:15:57;102378.88;;;16.24;100.00
35419;BME280;21525;41.240;16.500;2022-12-29T01:18:24;102373.50;;;16.33;100.00
35419;BME280;21525;41.240;16.500;2022-12-29T01:20:51;102381.63;;;16.11;100.00
35419;BME280;21525;41.240;16.500;2022-12-29T01:23:23;102378.22;;;15.99;100.00
35419;BME280;21525;41.240;16.500;2022-12-29T01:25:49;102378.28;;;15.93;100.00
35419;BME280;21525;41.240;16.500;2022-12-29T01:28:15;102381.63;;;16.11;100.00
35419;BME280;21525;41.240;16.500;2022-12-29T01:30:41;102380.66;;;16.20;100.00
35419;BME280;21525;41.240;16.500;2022-12-29T01:33:07;102379.13;;;15.96;100.00
35419;BME280;21525;41.240;16.500;2022-12-29T01:35:32;102382.72;;;15.89;100.00
35419;BME280;21525;41.240;16.500;2022-12-29T01:37:58;102374.69;;;16.03;100.00
35419;BME280;21525;41.240;16.500;2022-12-29T01:40:24;102378.47;;;15.71;100.00
35419;BME280;21525;41.240;16.500;2022-12-29T01:42:50;102377.59;;;15.71;100.00
35419;BME280;21525;41.240;16.500;2022-12-29T01:45:17;102369.72;;;15.72;100.00
35419;BME280;21525;41.240;16.500;2022-12-29T01:47:47;102373.88;;;15.95;100.00
35419;BME280;21525;41.240;16.500;2022-12-29T01:50:23;102371.38;;;15.83;100.00
35419;BME280;21525;41.240;16.500;2022-12-29T01:53:15;102374.00;;;15.86;100.00
35419;BME280;21525;41.240;16.500;2022-12-29T01:55:51;102357.25;;;15.96;100.00
35419;BME280;21525;41.240;16.500;2022-12-29T01:58:20;102349.16;;;16.20;100.00
35419;BME280;21525;41.240;16.500;2022-12-29T02:00:47;102348.34;;;16.15;100.00
35419;BME280;21525;41.240;16.500;2022-12-29T02:03:14;102349.09;;;16.25;99.63
35419;BME280;21525;41.240;16.500;2022-12-29T02:05:56;102352.72;;;16.15;100.00
35419;BME280;21525;41.240;16.500;2022-12-29T02:08:28;102360.75;;;15.96;100.00
35419;BME280;21525;41.240;16.500;2022-12-29T02:10:56;102351.38;;;15.68;100.00
35419;BME280;21525;41.240;16.500;2022-12-29T02:13:24;102363.56;;;15.78;100.00
35419;BME280;21525;41.240;16.500;2022-12-29T02:16:18;102356.25;;;16.10;98.72
35419;BME280;21525;41.240;16.500;2022-12-29T02:19:03;102340.81;;;15.80;99.51
35419;BME280;21525;41.240;16.500;2022-12-29T02:21:41;102343.38;;;15.88;100.00
35419;BME280;21525;41.240;16.500;2022-12-29T02:27:32;102347.31;;;16.25;100.00
35419;BME280;21525;41.240;16.500;2022-12-29T02:32:54;102344.56;;;16.39;99.49
35419;BME280;21525;41.240;16.500;2022-12-29T02:35:45;102343.84;;;16.25;99.89
35419;BME280;21525;41.240;16.500;2022-12-29T02:41:06;102336.03;;;16.20;99.20
35419;BME280;21525;41.240;16.500;2022-12-29T02:43:59;102341.34;;;16.16;99.29
35419;BME280;21525;41.240;16.500;2022-12-29T02:46:37;102344.06;;;16.03;100.00
35419;BME280;21525;41.240;16.500;2022-12-29T02:49:22;102334.59;;;15.92;100.00
35419;BME280;21525;41.240;16.500;2022-12-29T02:54:18;102340.34;;;15.25;100.00
35419;BME280;21525;41.240;16.500;2022-12-29T02:57:31;102343.56;;;15.62;100.00
35419;BME280;21525;41.240;16.500;2022-12-29T03:13:52;102333.63;;;15.97;95.44
35419;BME280;21525;41.240;16.500;2022-12-29T03:19:19;102335.00;;;16.32;93.62
35419;BME280;21525;41.240;16.500;2022-12-29T03:21:52;102338.72;;;16.16;94.83
35419;BME280;21525;41.240;16.500;2022-12-29T03:24:43;102342.59;;;15.73;99.11
35419;BME280;21525;41.240;16.500;2022-12-29T03:27:17;102338.72;;;16.16;96.20
35419;BME280;21525;41.240;16.500;2022-12-29T03:29:50;102336.72;;;16.36;95.15
35419;BME280;21525;41.240;16.500;2022-12-29T03:32:28;102340.53;;;16.07;96.39
35419;BME280;21525;41.240;16.500;2022-12-29T03:34:58;102347.78;;;15.81;95.55
35419;BME280;21525;41.240;16.500;2022-12-29T03:37:29;102348.78;;;15.63;96.17
35419;BME280;21525;41.240;16.500;2022-12-29T03:39:57;102343.78;;;15.30;98.05
35419;BME280;21525;41.240;16.500;2022-12-29T03:42:26;102344.66;;;15.27;96.09
35419;BME280;21525;41.240;16.500;2022-12-29T03:44:55;102344.34;;;15.73;93.01
35419;BME280;21525;41.240;16.500;2022-12-29T03:47:23;102347.00;;;15.70;93.17
35419;BME280;21525;41.240;16.500;2022-12-29T03:49:50;102343.50;;;15.69;92.35
35419;BME280;21525;41.240;16.500;2022-12-29T03:52:17;102347.81;;;15.78;90.97
35419;BME280;21525;41.240;16.500;2022-12-29T03:54:44;102346.16;;;15.65;91.16
35419;BME280;21525;41.240;16.500;2022-12-29T03:57:11;102348.66;;;15.80;91.13
35419;BME280;21525;41.240;16.500;2022-12-29T03:59:48;102348.75;;;15.71;90.42
35419;BME280;21525;41.240;16.500;2022-12-29T04:02:14;102357.63;;;15.58;91.54
35419;BME280;21525;41.240;16.500;2022-12-29T04:04:40;102354.13;;;15.57;91.71
35419;BME280;21525;41.240;16.500;2022-12-29T04:07:06;102349.78;;;15.45;92.19
35419;BME280;21525;41.240;16.500;2022-12-29T04:09:32;102347.88;;;15.72;90.15
35419;BME280;21525;41.240;16.500;2022-12-29T04:11:59;102349.59;;;15.73;89.89
35419;BME280;21525;41.240;16.500;2022-12-29T04:14:26;102346.84;;;15.90;89.09
35419;BME280;21525;41.240;16.500;2022-12-29T04:16:52;102346.25;;;15.54;92.43
35419;BME280;21525;41.240;16.500;2022-12-29T04:19:18;102342.63;;;15.72;90.25
35419;BME280;21525;41.240;16.500;2022-12-29T04:21:46;102343.34;;;15.89;89.41
35419;BME280;21525;41.240;16.500;2022-12-29T04:24:12;102344.31;;;15.79;89.35
35419;BME280;21525;41.240;16.500;2022-12-29T04:26:40;102354.00;;;15.69;91.37
35419;BME280;21525;41.240;16.500;2022-12-29T04:29:30;102354.09;;;15.54;91.11
35419;BME280;21525;41.240;16.500;2022-12-29T04:32:24;102346.06;;;15.77;89.63
35419;BME280;21525;41.240;16.500;2022-12-29T04:34:52;102347.78;;;15.83;88.44
35419;BME280;21525;41.240;16.500;2022-12-29T04:37:18;102342.63;;;15.69;90.73
35419;BME280;21525;41.240;16.500;2022-12-29T04:39:44;102333.91;;;15.68;89.98
35419;BME280;21525;41.240;16.500;2022-12-29T04:42:11;102326.63;;;15.96;87.60
35419;BME280;21525;41.240;16.500;2022-12-29T04:44:36;102336.34;;;15.90;88.75
35419;BME280;21525;41.240;16.500;2022-12-29T04:47:11;102335.91;;;16.29;85.42
35419;BME280;21525;41.240;16.500;2022-12-29T04:49:44;102340.56;;;16.04;87.62
35419;BME280;21525;41.240;16.500;2022-12-29T04:52:39;102344.16;;;15.94;87.68
35419;BME280;21525;41.240;16.500;2022-12-29T04:55:08;102342.50;;;15.87;88.76
35419;BME280;21525;41.240;16.500;2022-12-29T04:57:34;102345.19;;;15.79;87.84
35419;BME280;21525;41.240;16.500;2022-12-29T05:00:01;102347.69;;;15.92;87.22
35419;BME280;21525;41.240;16.500;2022-12-29T05:02:27;102339.59;;;16.13;86.66
35419;BME280;21525;41.240;16.500;2022-12-29T05:04:55;102345.03;;;15.93;86.74
35419;BME280;21525;41.240;16.500;2022-12-29T05:07:21;102353.63;;;16.09;85.91
35419;BME280;21525;41.240;16.500;2022-12-29T05:09:48;102345.84;;;16.00;86.42
35419;BME280;21525;41.240;16.500;2022-12-29T05:12:14;102353.94;;;15.78;87.07
35419;BME280;21525;41.240;16.500;2022-12-29T05:14:51;102364.44;;;15.77;86.60
35419;BME280;21525;41.240;16.500;2022-12-29T05:17:18;102363.28;;;16.07;85.68
35419;BME280;21525;41.240;16.500;2022-12-29T05:19:44;102350.31;;;15.92;85.49
35419;BME280;21525;41.240;16.500;2022-12-29T05:22:11;102356.59;;;15.74;86.71
35419;BME280;21525;41.240;16.500;2022-12-29T05:24:37;102368.88;;;15.69;87.30
35419;BME280;21525;41.240;16.500;2022-12-29T05:27:04;102363.47;;;15.90;86.55
35419;BME280;21525;41.240;16.500;2022-12-29T05:29:37;102367.91;;;15.79;86.29
35419;BME280;21525;41.240;16.500;2022-12-29T05:32:03;102369.38;;;16.09;84.82
35419;BME280;21525;41.240;16.500;2022-12-29T05:34:29;102359.41;;;16.43;83.37
35419;BME280;21525;41.240;16.500;2022-12-29T05:36:55;102362.00;;;16.44;83.00
35419;BME280;21525;41.240;16.500;2022-12-29T05:39:23;102366.53;;;16.30;82.62
35419;BME280;21525;41.240;16.500;2022-12-29T05:41:54;102366.97;;;15.89;84.40
35419;BME280;21525;41.240;16.500;2022-12-29T05:44:40;102368.97;;;15.58;86.68
35419;BME280;21525;41.240;16.500;2022-12-29T05:47:22;102360.00;;;15.85;85.15
35419;BME280;21525;41.240;16.500;2022-12-29T05:50:20;102365.16;;;15.93;84.41
35419;BME280;21525;41.240;16.500;2022-12-29T05:53:21;102373.19;;;15.76;85.55
35419;BME280;21525;41.240;16.500;2022-12-29T05:55:47;102370.50;;;15.85;84.16
35419;BME280;21525;41.240;16.500;2022-12-29T05:58:14;102375.78;;;15.79;85.27
35419;BME280;21525;41.240;16.500;2022-12-29T06:00:40;102379.41;;;15.64;86.48
35419;BME280;21525;41.240;16.500;2022-12-29T06:03:08;102374.06;;;15.78;85.60
35419;BME280;21525;41.240;16.500;2022-12-29T06:05:34;102382.63;;;15.95;83.71
35419;BME280;21525;41.240;16.500;2022-12-29T06:08:05;102379.06;;;16.02;83.18
35419;BME280;21525;41.240;16.500;2022-12-29T06:10:30;102386.56;;;16.40;81.33
35419;BME280;21525;41.240;16.500;2022-12-29T06:13:01;102378.91;;;16.21;82.66
35419;BME280;21525;41.240;16.500;2022-12-29T06:15:30;102380.47;;;16.38;81.63
35419;BME280;21525;41.240;16.500;2022-12-29T06:17:56;102385.16;;;16.06;83.35
35419;BME280;21525;41.240;16.500;2022-12-29T06:20:22;102382.28;;;16.32;82.18
35419;BME280;21525;41.240;16.500;2022-12-29T06:22:49;102390.44;;;16.04;83.71
35419;BME280;21525;41.240;16.500;2022-12-29T06:25:15;102387.88;;;15.94;84.34
35419;BME280;21525;41.240;16.500;2022-12-29T06:27:43;102397.50;;;15.95;85.16
35419;BME280;21525;41.240;16.500;2022-12-29T06:30:10;102397.19;;;16.30;83.22
35419;BME280;21525;41.240;16.500;2022-12-29T06:32:37;102394.78;;;16.05;84.40
35419;BME280;21525;41.240;16.500;2022-12-29T06:35:05;102403.47;;;16.13;84.34
35419;BME280;21525;41.240;16.500;2022-12-29T06:37:34;102395.63;;;16.12;83.99
35419;BME280;21525;41.240;16.500;2022-12-29T06:40:00;102403.59;;;15.98;83.94
35419;BME280;21525;41.240;16.500;2022-12-29T06:42:35;102399.63;;;15.45;87.16
35419;BME280;21525;41.240;16.500;2022-12-29T06:45:24;102399.31;;;15.91;84.35
35419;BME280;21525;41.240;16.500;2022-12-29T06:47:50;102399.41;;;16.69;80.61
35419;BME280;21525;41.240;16.500;2022-12-29T06:50:16;102388.09;;;16.58;80.41
35419;BME280;21525;41.240;16.500;2022-12-29T06:52:41;102392.66;;;16.44;81.22
35419;BME280;21525;41.240;16.500;2022-12-29T06:55:07;102394.47;;;16.39;80.99
35419;BME280;21525;41.240;16.500;2022-12-29T06:57:33;102398.59;;;16.64;79.58
35419;BME280;21525;41.240;16.500;2022-12-29T06:59:59;102398.59;;;16.64;77.99
35419;BME280;21525;41.240;16.500;2022-12-29T07:02:25;102394.31;;;16.53;80.18
35419;BME280;21525;41.240;16.500;2022-12-29T07:04:51;102392.50;;;17.27;77.08
35419;BME280;21525;41.240;16.500;2022-12-29T07:07:18;102385.25;;;18.90;70.16
35419;BME280;21525;41.240;16.500;2022-12-29T07:09:45;102382.53;;;20.06;63.97
35419;BME280;21525;41.240;16.500;2022-12-29T07:12:12;102370.06;;;21.04;60.79
35419;BME280;21525;41.240;16.500;2022-12-29T07:14:37;102373.22;;;21.97;56.58
35419;BME280;21525;41.240;16.500;2022-12-29T07:17:04;102372.78;;;22.09;53.63
35419;BME280;21525;41.240;16.500;2022-12-29T07:19:32;102373.88;;;21.51;55.03
35419;BME280;21525;41.240;16.500;2022-12-29T07:21:58;102370.50;;;22.97;52.55
35419;BME280;21525;41.240;16.500;2022-12-29T07:24:24;102368.13;;;23.56;49.07
35419;BME280;21525;41.240;16.500;2022-12-29T07:26:53;102362.88;;;23.75;49.35
35419;BME280;21525;41.240;16.500;2022-12-29T07:29:19;102366.50;;;24.15;47.51
35419;BME280;21525;41.240;16.500;2022-12-29T07:31:45;102367.09;;;24.21;47.46
35419;BME280;21525;41.240;16.500;2022-12-29T07:34:11;102357.22;;;24.64;46.83
35419;BME280;21525;41.240;16.500;2022-12-29T07:36:37;102359.69;;;25.42;45.14
35419;BME280;21525;41.240;16.500;2022-12-29T07:39:03;102354.69;;;26.22;43.23
35419;BME280;21525;41.240;16.500;2022-12-29T07:41:29;102357.84;;;26.79;42.22
35419;BME280;21525;41.240;16.500;2022-12-29T07:43:55;102356.63;;;26.69;42.45
35419;BME280;21525;41.240;16.500;2022-12-29T07:46:39;102346.84;;;27.17;41.65
35419;BME280;21525;41.240;16.500;2022-12-29T07:49:05;102355.75;;;27.63;40.98
35419;BME280;21525;41.240;16.500;2022-12-29T07:51:31;102358.91;;;26.92;42.40
35419;BME280;21525;41.240;16.500;2022-12-29T07:53:57;102360.34;;;27.29;42.97
35419;BME280;21525;41.240;16.500;2022-12-29T07:56:26;102359.16;;;27.35;40.72
35419;BME280;21525;41.240;16.500;2022-12-29T07:58:51;102364.31;;;28.28;41.36
35419;BME280;21525;41.240;16.500;2022-12-29T08:01:17;102366.13;;;28.70;39.46
35419;BME280;21525;41.240;16.500;2022-12-29T08:03:43;102368.34;;;28.35;39.24
35419;BME280;21525;41.240;16.500;2022-12-29T08:06:10;102372.34;;;28.42;39.65
35419;BME280;21525;41.240;16.500;2022-12-29T08:08:36;102375.31;;;28.37;39.83
35419;BME280;21525;41.240;16.500;2022-12-29T08:11:02;102370.44;;;28.30;39.88
35419;BME280;21525;41.240;16.500;2022-12-29T08:13:28;102378.69;;;27.51;41.21
35419;BME280;21525;41.240;16.500;2022-12-29T08:15:58;102378.34;;;27.41;41.12
35419;BME280;21525;41.240;16.500;2022-12-29T08:18:27;102377.88;;;27.19;41.75
35419;BME280;21525;41.240;16.500;2022-12-29T08:20:53;102375.38;;;27.16;42.31
35419;BME280;21525;41.240;16.500;2022-12-29T08:23:19;102371.84;;;26.51;43.39
35419;BME280;21525;41.240;16.500;2022-12-29T08:25:44;102378.06;;;26.34;45.00
35419;BME280;21525;41.240;16.500;2022-12-29T08:28:10;102378.88;;;26.19;45.09
35419;BME280;21525;41.240;16.500;2022-12-29T08:30:36;102377.31;;;25.81;47.31
35419;BME280;21525;41.240;16.500;2022-12-29T08:33:02;102375.91;;;25.91;47.39
35419;BME280;21525;41.240;16.500;2022-12-29T08:35:28;102385.72;;;25.90;47.95
35419;BME280;21525;41.240;16.500;2022-12-29T08:37:54;102378.72;;;25.88;47.48
35419;BME280;21525;41.240;16.500;2022-12-29T08:40:20;102386.53;;;25.37;48.08
35419;BME280;21525;41.240;16.500;2022-12-29T08:42:46;102399.19;;;25.51;48.88
35419;BME280;21525;41.240;16.500;2022-12-29T08:45:11;102390.06;;;25.38;50.24
35419;BME280;21525;41.240;16.500;2022-12-29T08:47:37;102387.69;;;25.51;50.76
35419;BME280;21525;41.240;16.500;2022-12-29T08:50:03;102390.25;;;25.16;51.17
35419;BME280;21525;41.240;16.500;2022-12-29T08:52:29;102390.47;;;24.35;52.73
35419;BME280;21525;41.240;16.500;2022-12-29T08:54:55;102395.56;;;23.77;54.83
35419;BME280;21525;41.240;16.500;2022-12-29T08:57:21;102386.22;;;24.50;54.21
35419;BME280;21525;41.240;16.500;2022-12-29T09:00:03;102387.22;;;25.05;53.18
35419;BME280;21525;41.240;16.500;2022-12-29T09:02:30;102394.03;;;24.73;54.39
35419;BME280;21525;41.240;16.500;2022-12-29T09:04:55;102381.63;;;25.47;52.50
35419;BME280;21525;41.240;16.500;2022-12-29T09:07:23;102382.09;;;25.74;51.74
35419;BME280;21525;41.240;16.500;2022-12-29T09:09:49;102381.91;;;25.05;52.74
35419;BME280;21525;41.240;16.500;2022-12-29T09:12:16;102381.09;;;24.65;53.59
35419;BME280;21525;41.240;16.500;2022-12-29T09:14:42;102390.69;;;24.08;55.52
35419;BME280;21525;41.240;16.500;2022-12-29T09:17:08;102389.56;;;24.14;57.13
35419;BME280;21525;41.240;16.500;2022-12-29T09:19:53;102387.13;;;24.30;56.89
35419;BME280;21525;41.240;16.500;2022-12-29T09:22:19;102380.75;;;24.92;54.99
35419;BME280;21525;41.240;16.500;2022-12-29T09:24:45;102381.72;;;25.45;52.76
35419;BME280;21525;41.240;16.500;2022-12-29T09:27:11;102379.91;;;25.65;52.91
35419;BME280;21525;41.240;16.500;2022-12-29T09:29:37;102376.91;;;25.71;52.56
35419;BME280;21525;41.240;16.500;2022-12-29T09:32:03;102378.28;;;25.97;51.85
35419;BME280;21525;41.240;16.500;2022-12-29T09:34:29;102378.94;;;26.00;51.72
35419;BME280;21525;41.240;16.500;2022-12-29T09:36:55;102385.00;;;25.51;52.85
35419;BME280;21525;41.240;16.500;2022-12-29T09:39:22;102375.06;;;25.90;52.61
35419;BME280;21525;41.240;16.500;2022-12-29T09:42:06;102367.03;;;26.07;52.10
35419;BME280;21525;41.240;16.500;2022-12-29T09:44:59;102365.72;;;26.49;50.63
35419;BME280;21525;41.240;16.500;2022-12-29T09:47:29;102358.47;;;26.18;50.72
35419;BME280;21525;41.240;16.500;2022-12-29T09:50:05;102357.50;;;26.36;50.76
35419;BME280;21525;41.240;16.500;2022-12-29T09:52:45;102364.22;;;26.61;49.39
35419;BME280;21525;41.240;16.500;2022-12-29T09:55:16;102359.03;;;26.58;47.89
35419;BME280;21525;41.240;16.500;2022-12-29T09:57:47;102352.31;;;26.66;48.84
35419;BME280;21525;41.240;16.500;2022-12-29T10:00:17;102349.88;;;26.95;48.09
35419;BME280;21525;41.240;16.500;2022-12-29T10:02:48;102340.66;;;27.00;48.25
35419;BME280;21525;41.240;16.500;2022-12-29T10:05:27;102345.09;;;26.68;48.15
35419;BME280;21525;41.240;16.500;2022-12-29T10:10:56;102334.75;;;26.95;48.36
35419;BME280;21525;41.240;16.500;2022-12-29T10:16:54;102327.72;;;27.08;47.15
35419;BME280;21525;41.240;16.500;2022-12-29T10:19:39;102331.94;;;27.28;45.83
35419;BME280;21525;41.240;16.500;2022-12-29T10:24:44;102327.06;;;25.90;48.81
35419;BME280;21525;41.240;16.500;2022-12-29T10:27:13;102327.59;;;25.80;48.39
35419;BME280;21525;41.240;16.500;2022-12-29T10:29:48;102321.41;;;25.96;49.85
35419;BME280;21525;41.240;16.500;2022-12-29T10:32:45;102326.22;;;24.82;53.17
35419;BME280;21525;41.240;16.500;2022-12-29T10:35:23;102325.25;;;25.20;52.57
35419;BME280;21525;41.240;16.500;2022-12-29T10:40:32;102315.22;;;24.52;51.62
35419;BME280;21525;41.240;16.500;2022-12-29T10:43:11;102318.72;;;25.27;50.39
35419;BME280;21525;41.240;16.500;2022-12-29T10:45:43;102313.00;;;24.61;53.08
35419;BME280;21525;41.240;16.500;2022-12-29T10:48:20;102312.81;;;23.86;54.68
35419;BME280;21525;41.240;16.500;2022-12-29T10:50:47;102320.13;;;24.01;54.37
35419;BME280;21525;41.240;16.500;2022-12-29T10:53:27;102319.84;;;23.45;56.54
35419;BME280;21525;41.240;16.500;2022-12-29T10:55:54;102313.56;;;22.59;58.68
35419;BME280;21525;41.240;16.500;2022-12-29T10:58:22;102312.91;;;22.05;61.91
35419;BME280;21525;41.240;16.500;2022-12-29T11:00:52;102313.38;;;23.52;59.71
35419;BME280;21525;41.240;16.500;2022-12-29T11:06:27;102299.50;;;22.80;62.22
35419;BME280;21525;41.240;16.500;2022-12-29T11:09:01;102291.97;;;23.97;58.65
35419;BME280;21525;41.240;16.500;2022-12-29T11:11:33;102289.72;;;24.07;57.42
35419;BME280;21525;41.240;16.500;2022-12-29T11:14:17;102294.75;;;23.32;58.51
35419;BME280;21525;41.240;16.500;2022-12-29T11:16:43;102288.97;;;23.85;57.65
35419;BME280;21525;41.240;16.500;2022-12-29T11:19:26;102284.53;;;25.01;52.85
35419;BME280;21525;41.240;16.500;2022-12-29T11:21:53;102286.78;;;24.90;50.78
35419;BME280;21525;41.240;16.500;2022-12-29T11:24:29;102293.34;;;23.01;55.62
35419;BME280;21525;41.240;16.500;2022-12-29T11:27:10;102292.66;;;23.18;55.35
35419;BME280;21525;41.240;16.500;2022-12-29T11:29:41;102278.50;;;24.21;54.40
35419;BME280;21525;41.240;16.500;2022-12-29T11:34:38;102281.00;;;22.08;66.87
35419;BME280;21525;41.240;16.500;2022-12-29T11:37:06;102273.97;;;24.04;59.27
35419;BME280;21525;41.240;16.500;2022-12-29T11:39:42;102268.84;;;23.79;59.58
35419;BME280;21525;41.240;16.500;2022-12-29T11:42:21;102267.09;;;24.94;55.01
35419;BME280;21525;41.240;16.500;2022-12-29T11:44:50;102265.13;;;24.03;54.21
35419;BME280;21525;41.240;16.500;2022-12-29T11:47:25;102262.72;;;23.97;55.12
35419;BME280;21525;41.240;16.500;2022-12-29T11:49:54;102255.91;;;24.10;53.83
35419;BME280;21525;41.240;16.500;2022-12-29T11:52:23;102255.25;;;24.26;53.53
35419;BME280;21525;41.240;16.500;2022-12-29T11:54:50;102257.28;;;24.58;51.81
35419;BME280;21525;41.240;16.500;2022-12-29T11:57:18;102260.00;;;25.11;51.51
35419;BME280;21525;41.240;16.500;2022-12-29T11:59:51;102260.31;;;22.87;57.71
35419;BME280;21525;41.240;16.500;2022-12-29T12:02:23;102257.13;;;21.59;65.02
35419;BME280;21525;41.240;16.500;2022-12-29T12:04:58;102257.28;;;23.18;61.54
35419;BME280;21525;41.240;16.500;2022-12-29T12:07:39;102255.03;;;22.41;63.78
35419;BME280;21525;41.240;16.500;2022-12-29T12:10:13;102245.84;;;22.27;62.69
35419;BME280;21525;41.240;16.500;2022-12-29T12:12:51;102245.25;;;21.70;64.58
35419;BME280;21525;41.240;16.500;2022-12-29T12:15:25;102242.44;;;22.46;61.68
35419;BME280;21525;41.240;16.500;2022-12-29T12:18:21;102246.63;;;21.31;66.10
35419;BME280;21525;41.240;16.500;2022-12-29T12:21:05;102246.28;;;21.13;66.48
35419;BME280;21525;41.240;16.500;2022-12-29T12:24:02;102245.72;;;22.53;63.42
35419;BME280;21525;41.240;16.500;2022-12-29T12:26:38;102246.66;;;23.18;58.75
35419;BME280;21525;41.240;16.500;2022-12-29T12:29:14;102235.22;;;23.37;59.70
35419;BME280;21525;41.240;16.500;2022-12-29T12:31:49;102234.56;;;22.67;60.19
35419;BME280;21525;41.240;16.500;2022-12-29T12:42:23;102228.88;;;21.59;67.56
35419;BME280;21525;41.240;16.500;2022-12-29T12:45:30;102227.47;;;21.74;68.88
35419;BME280;21525;41.240;16.500;2022-12-29T12:54:39;102213.59;;;22.16;63.77
35419;BME280;21525;41.240;16.500;2022-12-29T12:57:34;102214.72;;;21.35;66.00
35419;BME280;21525;41.240;16.500;2022-12-29T13:00:17;102219.22;;;21.05;71.20
35419;BME280;21525;41.240;16.500;2022-12-29T13:10:50;102208.56;;;21.60;71.54
35419;BME280;21525;41.240;16.500;2022-12-29T13:21:37;102210.16;;;23.02;60.48
35419;BME280;21525;41.240;16.500;2022-12-29T13:24:20;102211.81;;;21.15;65.68
35419;BME280;21525;41.240;16.500;2022-12-29T13:26:53;102214.63;;;20.56;69.71
35419;BME280;21525;41.240;16.500;2022-12-29T13:29:22;102212.50;;;20.95;70.41
35419;BME280;21525;41.240;16.500;2022-12-29T13:32:10;102216.63;;;20.48;70.33
35419;BME280;21525;41.240;16.500;2022-12-29T13:37:51;102210.22;;;21.11;70.51
35419;BME280;21525;41.240;16.500;2022-12-29T13:40:22;102211.28;;;20.79;73.88
35419;BME280;21525;41.240;16.500;2022-12-29T13:42:50;102212.34;;;21.00;74.65
35419;BME280;21525;41.240;16.500;2022-12-29T13:45:23;102215.91;;;22.01;70.42
35419;BME280;21525;41.240;16.500;2022-12-29T13:50:27;102211.81;;;21.68;72.76
35419;BME280;21525;41.240;16.500;2022-12-29T13:56:08;102205.63;;;21.67;72.62
35419;BME280;21525;41.240;16.500;2022-12-29T14:02:00;102203.84;;;22.39;68.12
35419;BME280;21525;41.240;16.500;2022-12-29T14:04:30;102206.28;;;21.74;71.31
35419;BME280;21525;41.240;16.500;2022-12-29T14:09:55;102202.53;;;22.04;68.03
35419;BME280;21525;41.240;16.500;2022-12-29T14:12:31;102206.97;;;22.04;65.08
35419;BME280;21525;41.240;16.500;2022-12-29T14:17:42;102210.75;;;21.22;69.42
35419;BME280;21525;41.240;16.500;2022-12-29T14:20:21;102209.94;;;21.45;69.90
35419;BME280;21525;41.240;16.500;2022-12-29T14:23:16;102219.28;;;22.28;65.70
35419;BME280;21525;41.240;16.500;2022-12-29T14:28:48;102214.00;;;21.30;70.94
35419;BME280;21525;41.240;16.500;2022-12-29T14:33:41;102219.66;;;21.18;70.67
35419;BME280;21525;41.240;16.500;2022-12-29T14:47:31;102225.91;;;20.89;71.67
35419;BME280;21525;41.240;16.500;2022-12-29T14:52:30;102224.78;;;21.24;71.22
35419;BME280;21525;41.240;16.500;2022-12-29T14:55:28;102230.88;;;20.44;74.12
35419;BME280;21525;41.240;16.500;2022-12-29T14:57:49;102228.41;;;21.22;72.35
35419;BME280;21525;41.240;16.500;2022-12-29T15:05:46;102225.22;;;21.10;72.49